sensor_id;sensor_type;location;lat;lon;timestamp;temperature;humidity
68098;DHT22;54886;47.036;15.466;2022-08-21T00:00:40;21.55;57.31
68098;DHT22;54886;47.036;15.466;2022-08-21T00:03:08;21.55;56.48
68098;DHT22;54886;47.036;15.466;2022-08-21T00:05:41;21.59;56.71
68098;DHT22;54886;47.036;15.466;2022-08-21T00:08:07;21.59;57.09
68098;DHT22;54886;47.036;15.466;2022-08-21T00:10:32;21.57;56.85
68098;DHT22;54886;47.036;15.466;2022-08-21T00:12:58;21.57;57.65
68098;DHT22;54886;47.036;15.466;2022-08-21T00:15:27;21.53;57.70
68098;DHT22;54886;47.036;15.466;2022-08-21T00:17:54;21.44;58.88
68098;DHT22;54886;47.036;15.466;2022-08-21T00:20:20;21.41;57.22
68098;DHT22;54886;47.036;15.466;2022-08-21T00:22:48;21.40;58.23
68098;DHT22;54886;47.036;15.466;2022-08-21T00:25:14;21.39;58.19
68098;DHT22;54886;47.036;15.466;2022-08-21T00:27:40;21.40;58.11
68098;DHT22;54886;47.036;15.466;2022-08-21T00:30:09;21.43;58.31
68098;DHT22;54886;47.036;15.466;2022-08-21T00:32:37;21.34;59.23
68098;DHT22;54886;47.036;15.466;2022-08-21T00:35:04;21.33;58.80
68098;DHT22;54886;47.036;15.466;2022-08-21T00:37:30;21.33;58.95
68098;DHT22;54886;47.036;15.466;2022-08-21T00:39:55;21.33;58.74
68098;DHT22;54886;47.036;15.466;2022-08-21T00:42:21;21.34;58.98
68098;DHT22;54886;47.036;15.466;2022-08-21T00:44:48;21.30;60.84
68098;DHT22;54886;47.036;15.466;2022-08-21T00:47:14;21.24;60.38
68098;DHT22;54886;47.036;15.466;2022-08-21T00:49:39;21.24;59.66
68098;DHT22;54886;47.036;15.466;2022-08-21T00:52:07;21.29;59.07
68098;DHT22;54886;47.036;15.466;2022-08-21T00:54:34;21.26;59.35
68098;DHT22;54886;47.036;15.466;2022-08-21T00:57:04;21.27;59.45
68098;DHT22;54886;47.036;15.466;2022-08-21T00:59:32;21.29;58.66
68098;DHT22;54886;47.036;15.466;2022-08-21T01:01:59;21.20;59.93
68098;DHT22;54886;47.036;15.466;2022-08-21T01:04:24;21.18;59.44
68098;DHT22;54886;47.036;15.466;2022-08-21T01:06:50;21.16;60.32
68098;DHT22;54886;47.036;15.466;2022-08-21T01:09:16;21.12;59.07
68098;DHT22;54886;47.036;15.466;2022-08-21T01:11:43;21.16;58.95
68098;DHT22;54886;47.036;15.466;2022-08-21T01:14:09;21.12;59.73
68098;DHT22;54886;47.036;15.466;2022-08-21T01:16:38;21.13;59.27
68098;DHT22;54886;47.036;15.466;2022-08-21T01:19:06;21.12;58.10
68098;DHT22;54886;47.036;15.466;2022-08-21T01:21:31;21.13;57.17
68098;DHT22;54886;47.036;15.466;2022-08-21T01:23:58;21.12;58.39
68098;DHT22;54886;47.036;15.466;2022-08-21T01:26:30;21.12;58.26
68098;DHT22;54886;47.036;15.466;2022-08-21T01:29:03;21.12;57.80
68098;DHT22;54886;47.036;15.466;2022-08-21T01:31:31;21.12;55.94
68098;DHT22;54886;47.036;15.466;2022-08-21T01:33:59;21.12;55.76
68098;DHT22;54886;47.036;15.466;2022-08-21T01:36:25;21.10;56.21
68098;DHT22;54886;47.036;15.466;2022-08-21T01:38:50;21.13;55.10
68098;DHT22;54886;47.036;15.466;2022-08-21T01:41:16;21.09;56.59
68098;DHT22;54886;47.036;15.466;2022-08-21T01:43:43;21.07;57.30
68098;DHT22;54886;47.036;15.466;2022-08-21T01:46:08;21.02;58.28
68098;DHT22;54886;47.036;15.466;2022-08-21T01:48:34;21.03;58.87
68098;DHT22;54886;47.036;15.466;2022-08-21T01:51:00;21.00;59.68
68098;DHT22;54886;47.036;15.466;2022-08-21T01:53:26;21.00;59.70
68098;DHT22;54886;47.036;15.466;2022-08-21T01:55:52;20.99;59.96
68098;DHT22;54886;47.036;15.466;2022-08-21T01:58:17;20.99;59.76
68098;DHT22;54886;47.036;15.466;2022-08-21T02:00:43;20.95;60.10
68098;DHT22;54886;47.036;15.466;2022-08-21T02:03:08;20.99;59.68
68098;DHT22;54886;47.036;15.466;2022-08-21T02:05:34;21.02;60.45
68098;DHT22;54886;47.036;15.466;2022-08-21T02:08:00;20.96;60.97
68098;DHT22;54886;47.036;15.466;2022-08-21T02:10:28;20.95;60.87
68098;DHT22;54886;47.036;15.466;2022-08-21T02:12:55;20.96;60.32
68098;DHT22;54886;47.036;15.466;2022-08-21T02:15:21;20.96;60.22
68098;DHT22;54886;47.036;15.466;2022-08-21T02:17:49;20.95;59.84
68098;DHT22;54886;47.036;15.466;2022-08-21T02:20:24;20.93;60.56
68098;DHT22;54886;47.036;15.466;2022-08-21T02:22:50;20.96;59.79
68098;DHT22;54886;47.036;15.466;2022-08-21T02:25:18;20.91;61.52
68098;DHT22;54886;47.036;15.466;2022-08-21T02:27:45;20.92;60.00
68098;DHT22;54886;47.036;15.466;2022-08-21T02:30:21;20.89;61.66
68098;DHT22;54886;47.036;15.466;2022-08-21T02:32:47;20.84;63.04
68098;DHT22;54886;47.036;15.466;2022-08-21T02:35:13;20.85;61.47
68098;DHT22;54886;47.036;15.466;2022-08-21T02:37:59;20.84;60.88
68098;DHT22;54886;47.036;15.466;2022-08-21T02:40:29;20.85;60.00
68098;DHT22;54886;47.036;15.466;2022-08-21T02:42:56;20.82;60.43
68098;DHT22;54886;47.036;15.466;2022-08-21T02:45:22;20.81;61.66
68098;DHT22;54886;47.036;15.466;2022-08-21T02:47:59;20.79;61.67
68098;DHT22;54886;47.036;15.466;2022-08-21T02:50:31;20.78;61.09
68098;DHT22;54886;47.036;15.466;2022-08-21T02:52:57;20.76;60.95
68098;DHT22;54886;47.036;15.466;2022-08-21T02:55:25;20.71;62.32
68098;DHT22;54886;47.036;15.466;2022-08-21T02:57:52;20.71;60.41
68098;DHT22;54886;47.036;15.466;2022-08-21T03:00:19;20.65;60.04
68098;DHT22;54886;47.036;15.466;2022-08-21T03:02:46;20.64;61.36
68098;DHT22;54886;47.036;15.466;2022-08-21T03:05:13;20.63;61.24
68098;DHT22;54886;47.036;15.466;2022-08-21T03:07:41;20.57;61.60
68098;DHT22;54886;47.036;15.466;2022-08-21T03:10:08;20.52;62.30
68098;DHT22;54886;47.036;15.466;2022-08-21T03:12:34;20.51;62.48
68098;DHT22;54886;47.036;15.466;2022-08-21T03:15:05;20.58;61.30
68098;DHT22;54886;47.036;15.466;2022-08-21T03:17:31;20.51;63.27
68098;DHT22;54886;47.036;15.466;2022-08-21T03:19:57;20.41;63.84
68098;DHT22;54886;47.036;15.466;2022-08-21T03:22:22;20.41;63.56
68098;DHT22;54886;47.036;15.466;2022-08-21T03:24:48;20.39;63.90
68098;DHT22;54886;47.036;15.466;2022-08-21T03:27:13;20.40;63.83
68098;DHT22;54886;47.036;15.466;2022-08-21T03:29:39;20.44;63.09
68098;DHT22;54886;47.036;15.466;2022-08-21T03:32:05;20.44;64.40
68098;DHT22;54886;47.036;15.466;2022-08-21T03:34:34;20.44;63.17
68098;DHT22;54886;47.036;15.466;2022-08-21T03:37:00;20.47;63.25
68098;DHT22;54886;47.036;15.466;2022-08-21T03:39:26;20.37;64.91
68098;DHT22;54886;47.036;15.466;2022-08-21T03:41:51;20.37;64.74
68098;DHT22;54886;47.036;15.466;2022-08-21T03:44:18;20.39;63.15
68098;DHT22;54886;47.036;15.466;2022-08-21T03:46:43;20.40;63.20
68098;DHT22;54886;47.036;15.466;2022-08-21T03:49:08;20.37;63.70
68098;DHT22;54886;47.036;15.466;2022-08-21T03:51:34;20.36;62.02
68098;DHT22;54886;47.036;15.466;2022-08-21T03:54:00;20.26;64.88
68098;DHT22;54886;47.036;15.466;2022-08-21T03:56:26;20.17;65.17
68098;DHT22;54886;47.036;15.466;2022-08-21T03:58:51;20.20;63.43
68098;DHT22;54886;47.036;15.466;2022-08-21T04:01:16;20.17;65.54
68098;DHT22;54886;47.036;15.466;2022-08-21T04:03:42;20.13;64.27
68098;DHT22;54886;47.036;15.466;2022-08-21T04:06:08;20.03;66.49
68098;DHT22;54886;47.036;15.466;2022-08-21T04:08:34;20.00;66.62
68098;DHT22;54886;47.036;15.466;2022-08-21T04:11:00;20.05;66.04
68098;DHT22;54886;47.036;15.466;2022-08-21T04:13:26;19.99;66.82
68098;DHT22;54886;47.036;15.466;2022-08-21T04:15:53;19.99;64.99
68098;DHT22;54886;47.036;15.466;2022-08-21T04:18:19;20.03;64.75
68098;DHT22;54886;47.036;15.466;2022-08-21T04:20:47;20.03;65.20
68098;DHT22;54886;47.036;15.466;2022-08-21T04:23:14;20.03;65.99
68098;DHT22;54886;47.036;15.466;2022-08-21T04:25:39;19.97;65.45
68098;DHT22;54886;47.036;15.466;2022-08-21T04:28:05;19.99;66.81
68098;DHT22;54886;47.036;15.466;2022-08-21T04:30:31;19.96;65.44
68098;DHT22;54886;47.036;15.466;2022-08-21T04:32:57;19.87;67.72
68098;DHT22;54886;47.036;15.466;2022-08-21T04:35:25;19.93;66.21
68098;DHT22;54886;47.036;15.466;2022-08-21T04:37:51;19.99;65.27
68098;DHT22;54886;47.036;15.466;2022-08-21T04:40:18;20.00;66.51
68098;DHT22;54886;47.036;15.466;2022-08-21T04:42:49;20.00;67.90
68098;DHT22;54886;47.036;15.466;2022-08-21T04:45:28;19.96;68.71
68098;DHT22;54886;47.036;15.466;2022-08-21T04:47:55;19.96;65.64
68098;DHT22;54886;47.036;15.466;2022-08-21T04:50:22;19.99;67.36
68098;DHT22;54886;47.036;15.466;2022-08-21T04:52:49;19.92;68.80
68098;DHT22;54886;47.036;15.466;2022-08-21T04:55:16;19.90;68.59
68098;DHT22;54886;47.036;15.466;2022-08-21T04:57:42;19.93;69.34
68098;DHT22;54886;47.036;15.466;2022-08-21T05:00:09;19.90;69.47
68098;DHT22;54886;47.036;15.466;2022-08-21T05:02:36;19.92;68.47
68098;DHT22;54886;47.036;15.466;2022-08-21T05:05:03;19.90;69.96
68098;DHT22;54886;47.036;15.466;2022-08-21T05:07:29;19.96;70.21
68098;DHT22;54886;47.036;15.466;2022-08-21T05:09:56;19.95;69.68
68098;DHT22;54886;47.036;15.466;2022-08-21T05:12:22;19.97;68.68
68098;DHT22;54886;47.036;15.466;2022-08-21T05:14:48;19.99;69.25
68098;DHT22;54886;47.036;15.466;2022-08-21T05:17:13;19.99;69.60
68098;DHT22;54886;47.036;15.466;2022-08-21T05:19:39;19.96;70.60
68098;DHT22;54886;47.036;15.466;2022-08-21T05:22:05;19.99;70.64
68098;DHT22;54886;47.036;15.466;2022-08-21T05:24:31;20.00;70.75
68098;DHT22;54886;47.036;15.466;2022-08-21T05:26:56;20.02;70.42
68098;DHT22;54886;47.036;15.466;2022-08-21T05:29:22;20.03;70.27
68098;DHT22;54886;47.036;15.466;2022-08-21T05:31:47;20.05;70.52
68098;DHT22;54886;47.036;15.466;2022-08-21T05:34:17;20.05;70.78
68098;DHT22;54886;47.036;15.466;2022-08-21T05:36:43;20.10;67.87
68098;DHT22;54886;47.036;15.466;2022-08-21T05:39:08;20.14;68.77
68098;DHT22;54886;47.036;15.466;2022-08-21T05:41:34;20.19;69.32
68098;DHT22;54886;47.036;15.466;2022-08-21T05:43:59;20.19;68.45
68098;DHT22;54886;47.036;15.466;2022-08-21T05:46:24;20.24;67.40
68098;DHT22;54886;47.036;15.466;2022-08-21T05:48:50;20.27;69.04
68098;DHT22;54886;47.036;15.466;2022-08-21T05:51:15;20.34;67.00
68098;DHT22;54886;47.036;15.466;2022-08-21T05:53:42;20.31;68.77
68098;DHT22;54886;47.036;15.466;2022-08-21T05:56:09;20.36;65.86
68098;DHT22;54886;47.036;15.466;2022-08-21T05:58:35;20.37;69.02
68098;DHT22;54886;47.036;15.466;2022-08-21T06:01:01;20.40;69.49
68098;DHT22;54886;47.036;15.466;2022-08-21T06:03:33;20.44;66.57
68098;DHT22;54886;47.036;15.466;2022-08-21T06:05:59;20.45;68.64
68098;DHT22;54886;47.036;15.466;2022-08-21T06:08:25;20.47;68.20
68098;DHT22;54886;47.036;15.466;2022-08-21T06:10:52;20.50;66.44
68098;DHT22;54886;47.036;15.466;2022-08-21T06:13:19;20.55;66.56
68098;DHT22;54886;47.036;15.466;2022-08-21T06:15:45;20.55;68.22
68098;DHT22;54886;47.036;15.466;2022-08-21T06:18:10;20.59;67.19
68098;DHT22;54886;47.036;15.466;2022-08-21T06:20:37;20.58;69.79
68098;DHT22;54886;47.036;15.466;2022-08-21T06:23:03;20.58;68.95
68098;DHT22;54886;47.036;15.466;2022-08-21T06:25:29;20.63;68.91
68098;DHT22;54886;47.036;15.466;2022-08-21T06:28:07;20.64;70.01
68098;DHT22;54886;47.036;15.466;2022-08-21T06:30:33;20.68;69.59
68098;DHT22;54886;47.036;15.466;2022-08-21T06:32:59;20.68;69.17
68098;DHT22;54886;47.036;15.466;2022-08-21T06:35:25;20.74;68.28
68098;DHT22;54886;47.036;15.466;2022-08-21T06:37:50;20.76;68.16
68098;DHT22;54886;47.036;15.466;2022-08-21T06:40:16;20.75;67.72
68098;DHT22;54886;47.036;15.466;2022-08-21T06:42:41;20.81;65.84
68098;DHT22;54886;47.036;15.466;2022-08-21T06:45:07;20.81;66.01
68098;DHT22;54886;47.036;15.466;2022-08-21T06:47:33;20.85;65.83
68098;DHT22;54886;47.036;15.466;2022-08-21T06:49:58;20.88;65.91
68098;DHT22;54886;47.036;15.466;2022-08-21T06:52:23;20.91;66.17
68098;DHT22;54886;47.036;15.466;2022-08-21T06:54:49;20.95;66.25
68098;DHT22;54886;47.036;15.466;2022-08-21T06:57:15;20.98;65.69
68098;DHT22;54886;47.036;15.466;2022-08-21T06:59:40;21.02;65.20
68098;DHT22;54886;47.036;15.466;2022-08-21T07:02:06;21.03;65.11
68098;DHT22;54886;47.036;15.466;2022-08-21T07:04:31;21.06;62.32
68098;DHT22;54886;47.036;15.466;2022-08-21T07:06:57;21.05;61.72
68098;DHT22;54886;47.036;15.466;2022-08-21T07:09:22;21.07;61.01
68098;DHT22;54886;47.036;15.466;2022-08-21T07:11:51;21.10;60.53
68098;DHT22;54886;47.036;15.466;2022-08-21T07:14:17;21.09;58.40
68098;DHT22;54886;47.036;15.466;2022-08-21T07:16:42;21.09;58.66
68098;DHT22;54886;47.036;15.466;2022-08-21T07:19:09;21.14;58.01
68098;DHT22;54886;47.036;15.466;2022-08-21T07:21:34;21.13;58.77
68098;DHT22;54886;47.036;15.466;2022-08-21T07:24:00;21.14;58.42
68098;DHT22;54886;47.036;15.466;2022-08-21T07:26:25;21.16;58.84
68098;DHT22;54886;47.036;15.466;2022-08-21T07:28:51;21.16;58.30
68098;DHT22;54886;47.036;15.466;2022-08-21T07:31:19;21.20;58.38
68098;DHT22;54886;47.036;15.466;2022-08-21T07:33:45;21.23;58.17
68098;DHT22;54886;47.036;15.466;2022-08-21T07:36:11;21.20;58.31
68098;DHT22;54886;47.036;15.466;2022-08-21T07:38:37;21.23;57.98
68098;DHT22;54886;47.036;15.466;2022-08-21T07:41:07;21.24;58.05
68098;DHT22;54886;47.036;15.466;2022-08-21T07:43:36;21.26;58.49
68098;DHT22;54886;47.036;15.466;2022-08-21T07:46:02;21.29;58.86
68098;DHT22;54886;47.036;15.466;2022-08-21T07:48:27;21.30;58.47
68098;DHT22;54886;47.036;15.466;2022-08-21T07:50:53;21.31;58.39
68098;DHT22;54886;47.036;15.466;2022-08-21T07:53:18;21.34;58.41
68098;DHT22;54886;47.036;15.466;2022-08-21T07:55:44;21.33;58.59
68098;DHT22;54886;47.036;15.466;2022-08-21T07:58:09;21.33;57.89
68098;DHT22;54886;47.036;15.466;2022-08-21T08:00:35;21.39;58.24
68098;DHT22;54886;47.036;15.466;2022-08-21T08:03:00;21.39;58.70
68098;DHT22;54886;47.036;15.466;2022-08-21T08:05:28;21.40;58.01
68098;DHT22;54886;47.036;15.466;2022-08-21T08:07:55;21.44;57.82
68098;DHT22;54886;47.036;15.466;2022-08-21T08:10:22;21.46;57.84
68098;DHT22;54886;47.036;15.466;2022-08-21T08:12:47;21.47;58.01
68098;DHT22;54886;47.036;15.466;2022-08-21T08:15:19;21.50;57.42
68098;DHT22;54886;47.036;15.466;2022-08-21T08:17:45;21.54;57.63
68098;DHT22;54886;47.036;15.466;2022-08-21T08:20:12;21.55;58.21
68098;DHT22;54886;47.036;15.466;2022-08-21T08:22:39;21.61;57.57
68098;DHT22;54886;47.036;15.466;2022-08-21T08:25:06;21.62;57.49
68098;DHT22;54886;47.036;15.466;2022-08-21T08:27:31;21.62;57.74
68098;DHT22;54886;47.036;15.466;2022-08-21T08:29:57;21.68;58.18
68098;DHT22;54886;47.036;15.466;2022-08-21T08:32:23;21.68;56.53
68098;DHT22;54886;47.036;15.466;2022-08-21T08:34:49;21.68;56.68
68098;DHT22;54886;47.036;15.466;2022-08-21T08:37:17;21.71;56.82
68098;DHT22;54886;47.036;15.466;2022-08-21T08:39:43;21.75;56.96
68098;DHT22;54886;47.036;15.466;2022-08-21T08:42:14;21.77;57.01
68098;DHT22;54886;47.036;15.466;2022-08-21T08:44:42;21.77;57.01
68098;DHT22;54886;47.036;15.466;2022-08-21T08:47:09;21.78;57.08
68098;DHT22;54886;47.036;15.466;2022-08-21T08:52:33;21.85;57.24
68098;DHT22;54886;47.036;15.466;2022-08-21T08:55:09;21.86;57.15
68098;DHT22;54886;47.036;15.466;2022-08-21T08:57:37;21.85;56.77
68098;DHT22;54886;47.036;15.466;2022-08-21T09:00:11;21.88;56.82
68098;DHT22;54886;47.036;15.466;2022-08-21T09:02:42;21.92;57.50
68098;DHT22;54886;47.036;15.466;2022-08-21T09:05:19;21.95;57.79
68098;DHT22;54886;47.036;15.466;2022-08-21T09:08:15;21.95;58.48
68098;DHT22;54886;47.036;15.466;2022-08-21T09:16:03;22.02;59.29
68098;DHT22;54886;47.036;15.466;2022-08-21T09:26:20;22.17;59.52
68098;DHT22;54886;47.036;15.466;2022-08-21T09:28:52;22.22;59.94
68098;DHT22;54886;47.036;15.466;2022-08-21T09:31:25;22.20;60.45
68098;DHT22;54886;47.036;15.466;2022-08-21T09:33:57;22.24;60.08
68098;DHT22;54886;47.036;15.466;2022-08-21T09:36:35;22.24;59.21
68098;DHT22;54886;47.036;15.466;2022-08-21T09:39:03;22.26;59.18
68098;DHT22;54886;47.036;15.466;2022-08-21T09:41:31;22.28;58.99
68098;DHT22;54886;47.036;15.466;2022-08-21T09:43:57;22.28;58.96
68098;DHT22;54886;47.036;15.466;2022-08-21T09:46:25;22.28;57.99
68098;DHT22;54886;47.036;15.466;2022-08-21T09:48:53;22.28;58.76
68098;DHT22;54886;47.036;15.466;2022-08-21T09:51:20;22.30;59.59
68098;DHT22;54886;47.036;15.466;2022-08-21T09:53:51;22.30;60.18
68098;DHT22;54886;47.036;15.466;2022-08-21T09:56:50;22.29;59.87
68098;DHT22;54886;47.036;15.466;2022-08-21T09:59:31;22.36;59.89
68098;DHT22;54886;47.036;15.466;2022-08-21T10:01:59;22.39;58.50
68098;DHT22;54886;47.036;15.466;2022-08-21T10:04:32;22.43;58.59
68098;DHT22;54886;47.036;15.466;2022-08-21T10:07:12;22.48;59.47
68098;DHT22;54886;47.036;15.466;2022-08-21T10:09:38;22.51;58.32
68098;DHT22;54886;47.036;15.466;2022-08-21T10:14:53;22.63;57.83
68098;DHT22;54886;47.036;15.466;2022-08-21T10:20:15;22.69;57.26
68098;DHT22;54886;47.036;15.466;2022-08-21T10:25:52;22.94;56.54
68098;DHT22;54886;47.036;15.466;2022-08-21T10:28:26;23.01;55.49
68098;DHT22;54886;47.036;15.466;2022-08-21T10:31:23;23.08;55.16
68098;DHT22;54886;47.036;15.466;2022-08-21T10:42:36;23.15;54.44
68098;DHT22;54886;47.036;15.466;2022-08-21T10:48:08;23.20;54.63
68098;DHT22;54886;47.036;15.466;2022-08-21T10:50:42;23.19;53.35
68098;DHT22;54886;47.036;15.466;2022-08-21T10:55:56;23.27;53.10
68098;DHT22;54886;47.036;15.466;2022-08-21T10:58:37;23.30;53.67
68098;DHT22;54886;47.036;15.466;2022-08-21T11:01:15;23.34;54.13
68098;DHT22;54886;47.036;15.466;2022-08-21T11:03:45;23.37;54.33
68098;DHT22;54886;47.036;15.466;2022-08-21T11:08:41;23.49;54.10
68098;DHT22;54886;47.036;15.466;2022-08-21T11:11:35;23.50;54.31
68098;DHT22;54886;47.036;15.466;2022-08-21T11:16:41;23.60;52.34
68098;DHT22;54886;47.036;15.466;2022-08-21T11:19:28;23.63;52.88
68098;DHT22;54886;47.036;15.466;2022-08-21T11:22:08;23.65;52.73
68098;DHT22;54886;47.036;15.466;2022-08-21T11:25:03;23.67;52.54
68098;DHT22;54886;47.036;15.466;2022-08-21T11:27:42;23.71;52.58
68098;DHT22;54886;47.036;15.466;2022-08-21T11:30:09;23.74;52.95
68098;DHT22;54886;47.036;15.466;2022-08-21T11:41:03;23.91;52.82
68098;DHT22;54886;47.036;15.466;2022-08-21T11:43:40;23.92;52.18
68098;DHT22;54886;47.036;15.466;2022-08-21T11:46:17;23.95;51.91
68098;DHT22;54886;47.036;15.466;2022-08-21T11:51:39;23.95;52.03
68098;DHT22;54886;47.036;15.466;2022-08-21T11:56:45;24.08;52.51
68098;DHT22;54886;47.036;15.466;2022-08-21T11:59:23;24.09;52.38
68098;DHT22;54886;47.036;15.466;2022-08-21T12:01:52;24.12;51.20
68098;DHT22;54886;47.036;15.466;2022-08-21T12:04:31;24.15;51.38
68098;DHT22;54886;47.036;15.466;2022-08-21T12:07:14;24.18;50.88
68098;DHT22;54886;47.036;15.466;2022-08-21T12:09:39;24.20;49.78
68098;DHT22;54886;47.036;15.466;2022-08-21T12:12:12;24.22;50.65
68098;DHT22;54886;47.036;15.466;2022-08-21T12:14:45;24.23;50.39
68098;DHT22;54886;47.036;15.466;2022-08-21T12:17:20;24.25;50.02
68098;DHT22;54886;47.036;15.466;2022-08-21T12:19:57;24.26;50.44
68098;DHT22;54886;47.036;15.466;2022-08-21T12:22:23;24.29;49.23
68098;DHT22;54886;47.036;15.466;2022-08-21T12:25:06;24.25;50.17
68098;DHT22;54886;47.036;15.466;2022-08-21T12:27:53;24.23;50.25
68098;DHT22;54886;47.036;15.466;2022-08-21T12:33:02;24.23;50.85
68098;DHT22;54886;47.036;15.466;2022-08-21T12:35:33;24.23;50.42
68098;DHT22;54886;47.036;15.466;2022-08-21T12:38:13;24.22;50.67
68098;DHT22;54886;47.036;15.466;2022-08-21T12:40:49;24.25;50.36
68098;DHT22;54886;47.036;15.466;2022-08-21T12:43:23;24.26;51.10
68098;DHT22;54886;47.036;15.466;2022-08-21T12:45:50;24.32;50.58
68098;DHT22;54886;47.036;15.466;2022-08-21T12:50:54;24.40;49.88
68098;DHT22;54886;47.036;15.466;2022-08-21T12:53:26;24.41;50.71
68098;DHT22;54886;47.036;15.466;2022-08-21T12:55:54;24.39;50.68
68098;DHT22;54886;47.036;15.466;2022-08-21T12:58:25;24.41;50.39
68098;DHT22;54886;47.036;15.466;2022-08-21T13:01:05;24.43;50.15
68098;DHT22;54886;47.036;15.466;2022-08-21T13:03:35;24.39;50.09
68098;DHT22;54886;47.036;15.466;2022-08-21T13:06:03;24.37;49.93
68098;DHT22;54886;47.036;15.466;2022-08-21T13:08:30;24.36;49.43
68098;DHT22;54886;47.036;15.466;2022-08-21T13:11:04;24.33;49.80
68098;DHT22;54886;47.036;15.466;2022-08-21T13:13:31;24.33;50.71
68098;DHT22;54886;47.036;15.466;2022-08-21T13:15:59;24.36;50.71
68098;DHT22;54886;47.036;15.466;2022-08-21T13:18:29;24.35;51.05
68098;DHT22;54886;47.036;15.466;2022-08-21T13:21:13;24.36;51.07
68098;DHT22;54886;47.036;15.466;2022-08-21T13:23:40;24.36;50.06
68098;DHT22;54886;47.036;15.466;2022-08-21T13:26:16;24.37;49.85
68098;DHT22;54886;47.036;15.466;2022-08-21T13:28:43;24.37;49.04
68098;DHT22;54886;47.036;15.466;2022-08-21T13:31:16;24.37;49.71
68098;DHT22;54886;47.036;15.466;2022-08-21T13:33:41;24.35;48.89
68098;DHT22;54886;47.036;15.466;2022-08-21T13:36:18;24.33;49.70
68098;DHT22;54886;47.036;15.466;2022-08-21T13:38:45;24.28;48.88
68098;DHT22;54886;47.036;15.466;2022-08-21T13:43:50;24.26;48.74
68098;DHT22;54886;47.036;15.466;2022-08-21T13:46:22;24.23;49.11
68098;DHT22;54886;47.036;15.466;2022-08-21T13:48:49;24.23;48.85
68098;DHT22;54886;47.036;15.466;2022-08-21T13:51:15;24.25;48.86
68098;DHT22;54886;47.036;15.466;2022-08-21T13:56:06;24.22;48.82
68098;DHT22;54886;47.036;15.466;2022-08-21T14:00:59;24.20;48.60
68098;DHT22;54886;47.036;15.466;2022-08-21T14:03:31;24.18;48.91
68098;DHT22;54886;47.036;15.466;2022-08-21T14:05:57;24.22;48.25
68098;DHT22;54886;47.036;15.466;2022-08-21T14:08:31;24.18;48.99
68098;DHT22;54886;47.036;15.466;2022-08-21T14:10:58;24.18;48.94
68098;DHT22;54886;47.036;15.466;2022-08-21T14:13:42;24.12;49.30
68098;DHT22;54886;47.036;15.466;2022-08-21T14:16:13;24.13;49.88
68098;DHT22;54886;47.036;15.466;2022-08-21T14:19:10;24.12;49.44
68098;DHT22;54886;47.036;15.466;2022-08-21T14:21:37;24.11;49.51
68098;DHT22;54886;47.036;15.466;2022-08-21T14:24:14;24.15;49.62
68098;DHT22;54886;47.036;15.466;2022-08-21T14:26:50;24.13;49.87
68098;DHT22;54886;47.036;15.466;2022-08-21T14:29:19;24.12;49.55
68098;DHT22;54886;47.036;15.466;2022-08-21T14:31:57;24.13;49.43
68098;DHT22;54886;47.036;15.466;2022-08-21T14:34:26;24.15;49.39
68098;DHT22;54886;47.036;15.466;2022-08-21T14:36:52;24.20;48.96
68098;DHT22;54886;47.036;15.466;2022-08-21T14:39:18;24.16;49.27
68098;DHT22;54886;47.036;15.466;2022-08-21T14:41:43;24.15;49.55
68098;DHT22;54886;47.036;15.466;2022-08-21T14:44:11;24.18;48.30
68098;DHT22;54886;47.036;15.466;2022-08-21T14:46:36;24.18;49.36
68098;DHT22;54886;47.036;15.466;2022-08-21T14:49:03;24.18;48.84
68098;DHT22;54886;47.036;15.466;2022-08-21T14:51:28;24.18;49.29
68098;DHT22;54886;47.036;15.466;2022-08-21T14:53:54;24.13;48.88
68098;DHT22;54886;47.036;15.466;2022-08-21T14:56:20;24.19;49.24
68098;DHT22;54886;47.036;15.466;2022-08-21T14:58:48;24.18;48.97
68098;DHT22;54886;47.036;15.466;2022-08-21T15:01:16;24.19;49.39
68098;DHT22;54886;47.036;15.466;2022-08-21T15:03:44;24.22;49.47
68098;DHT22;54886;47.036;15.466;2022-08-21T15:06:10;24.22;50.15
68098;DHT22;54886;47.036;15.466;2022-08-21T15:08:36;24.23;49.40
68098;DHT22;54886;47.036;15.466;2022-08-21T15:11:03;24.20;47.88
68098;DHT22;54886;47.036;15.466;2022-08-21T15:13:29;24.23;47.31
68098;DHT22;54886;47.036;15.466;2022-08-21T15:15:56;24.22;46.80
68098;DHT22;54886;47.036;15.466;2022-08-21T15:18:23;24.23;46.22
68098;DHT22;54886;47.036;15.466;2022-08-21T15:20:50;24.19;47.19
68098;DHT22;54886;47.036;15.466;2022-08-21T15:23:16;24.16;44.96
68098;DHT22;54886;47.036;15.466;2022-08-21T15:25:43;24.18;45.68
68098;DHT22;54886;47.036;15.466;2022-08-21T15:28:10;24.16;44.71
68098;DHT22;54886;47.036;15.466;2022-08-21T15:30:37;24.16;45.54
68098;DHT22;54886;47.036;15.466;2022-08-21T15:33:03;24.12;44.80
68098;DHT22;54886;47.036;15.466;2022-08-21T15:35:29;24.09;44.88
68098;DHT22;54886;47.036;15.466;2022-08-21T15:37:54;24.11;45.64
68098;DHT22;54886;47.036;15.466;2022-08-21T15:40:20;24.16;44.06
68098;DHT22;54886;47.036;15.466;2022-08-21T15:42:45;24.13;45.20
68098;DHT22;54886;47.036;15.466;2022-08-21T15:45:12;24.09;45.17
68098;DHT22;54886;47.036;15.466;2022-08-21T15:47:42;24.08;45.35
68098;DHT22;54886;47.036;15.466;2022-08-21T15:50:09;24.08;45.30
68098;DHT22;54886;47.036;15.466;2022-08-21T15:52:36;24.05;44.73
68098;DHT22;54886;47.036;15.466;2022-08-21T15:55:04;24.06;44.81
68098;DHT22;54886;47.036;15.466;2022-08-21T15:57:30;24.05;44.75
68098;DHT22;54886;47.036;15.466;2022-08-21T15:59:58;24.05;44.25
68098;DHT22;54886;47.036;15.466;2022-08-21T16:02:32;24.04;44.04
68098;DHT22;54886;47.036;15.466;2022-08-21T16:04:58;23.95;44.14
68098;DHT22;54886;47.036;15.466;2022-08-21T16:07:23;23.95;44.96
68098;DHT22;54886;47.036;15.466;2022-08-21T16:09:49;23.92;44.60
68098;DHT22;54886;47.036;15.466;2022-08-21T16:12:22;23.92;45.08
68098;DHT22;54886;47.036;15.466;2022-08-21T16:14:48;23.89;44.88
68098;DHT22;54886;47.036;15.466;2022-08-21T16:17:16;23.91;45.12
68098;DHT22;54886;47.036;15.466;2022-08-21T16:19:41;23.88;45.09
68098;DHT22;54886;47.036;15.466;2022-08-21T16:22:07;23.88;45.33
68098;DHT22;54886;47.036;15.466;2022-08-21T16:24:32;23.88;45.09
68098;DHT22;54886;47.036;15.466;2022-08-21T16:26:58;23.85;44.52
68098;DHT22;54886;47.036;15.466;2022-08-21T16:29:23;23.85;45.45
68098;DHT22;54886;47.036;15.466;2022-08-21T16:31:50;23.85;45.06
68098;DHT22;54886;47.036;15.466;2022-08-21T16:34:17;23.79;44.79